sensor_id;sensor_type;location;lat;lon;timestamp;temperature;humidity
31783;DHT22;18351;47.560;9.708;2023-04-07T00:01:19;8.10;82.00
31783;DHT22;18351;47.560;9.708;2023-04-07T00:03:46;8.00;82.40
31783;DHT22;18351;47.560;9.708;2023-04-07T00:06:11;8.00;82.80
31783;DHT22;18351;47.560;9.708;2023-04-07T00:08:37;8.00;83.00
31783;DHT22;18351;47.560;9.708;2023-04-07T00:11:03;8.00;83.40
31783;DHT22;18351;47.560;9.708;2023-04-07T00:13:29;8.00;83.90
31783;DHT22;18351;47.560;9.708;2023-04-07T00:15:54;8.00;84.70
31783;DHT22;18351;47.560;9.708;2023-04-07T00:18:20;7.90;86.10
31783;DHT22;18351;47.560;9.708;2023-04-07T00:20:46;7.80;87.20
31783;DHT22;18351;47.560;9.708;2023-04-07T00:23:11;7.90;88.80
31783;DHT22;18351;47.560;9.708;2023-04-07T00:25:37;7.80;90.40
31783;DHT22;18351;47.560;9.708;2023-04-07T00:28:02;7.70;91.00
31783;DHT22;18351;47.560;9.708;2023-04-07T00:30:28;7.60;92.10
31783;DHT22;18351;47.560;9.708;2023-04-07T00:32:53;7.70;93.40
31783;DHT22;18351;47.560;9.708;2023-04-07T00:35:19;7.70;93.90
31783;DHT22;18351;47.560;9.708;2023-04-07T00:37:45;7.60;94.30
31783;DHT22;18351;47.560;9.708;2023-04-07T00:40:10;7.50;94.70
31783;DHT22;18351;47.560;9.708;2023-04-07T00:42:36;7.50;95.10
31783;DHT22;18351;47.560;9.708;2023-04-07T00:45:02;7.50;95.70
31783;DHT22;18351;47.560;9.708;2023-04-07T00:47:27;7.40;95.90
31783;DHT22;18351;47.560;9.708;2023-04-07T00:49:53;7.30;96.40
31783;DHT22;18351;47.560;9.708;2023-04-07T00:52:19;7.40;98.20
31783;DHT22;18351;47.560;9.708;2023-04-07T00:54:53;7.40;97.60
31783;DHT22;18351;47.560;9.708;2023-04-07T00:57:18;7.40;98.30
31783;DHT22;18351;47.560;9.708;2023-04-07T00:59:44;7.40;98.30
31783;DHT22;18351;47.560;9.708;2023-04-07T01:02:16;7.50;98.40
31783;DHT22;18351;47.560;9.708;2023-04-07T01:04:50;7.40;98.60
31783;DHT22;18351;47.560;9.708;2023-04-07T01:07:34;7.50;99.60
31783;DHT22;18351;47.560;9.708;2023-04-07T01:10:09;7.50;99.90
31783;DHT22;18351;47.560;9.708;2023-04-07T01:13:05;7.50;99.90
31783;DHT22;18351;47.560;9.708;2023-04-07T01:15:33;7.60;99.90
31783;DHT22;18351;47.560;9.708;2023-04-07T01:18:07;7.50;99.90
31783;DHT22;18351;47.560;9.708;2023-04-07T01:20:33;7.50;99.90
31783;DHT22;18351;47.560;9.708;2023-04-07T01:23:05;7.50;99.90
31783;DHT22;18351;47.560;9.708;2023-04-07T01:28:40;7.60;99.90
31783;DHT22;18351;47.560;9.708;2023-04-07T01:31:09;7.60;99.90
31783;DHT22;18351;47.560;9.708;2023-04-07T01:33:36;7.50;99.90
31783;DHT22;18351;47.560;9.708;2023-04-07T01:36:04;7.50;99.90
31783;DHT22;18351;47.560;9.708;2023-04-07T01:38:31;7.60;99.90
31783;DHT22;18351;47.560;9.708;2023-04-07T01:40:57;7.60;99.90
31783;DHT22;18351;47.560;9.708;2023-04-07T01:43:23;7.60;99.90
31783;DHT22;18351;47.560;9.708;2023-04-07T01:45:50;7.60;99.90
31783;DHT22;18351;47.560;9.708;2023-04-07T01:48:17;7.60;99.90
31783;DHT22;18351;47.560;9.708;2023-04-07T01:50:43;7.60;99.90
31783;DHT22;18351;47.560;9.708;2023-04-07T01:53:10;7.60;99.50
31783;DHT22;18351;47.560;9.708;2023-04-07T01:55:36;7.70;98.50
31783;DHT22;18351;47.560;9.708;2023-04-07T01:58:06;7.80;97.70
31783;DHT22;18351;47.560;9.708;2023-04-07T02:00:31;7.80;97.50
31783;DHT22;18351;47.560;9.708;2023-04-07T02:03:06;7.90;97.50
31783;DHT22;18351;47.560;9.708;2023-04-07T02:05:35;7.90;97.60
31783;DHT22;18351;47.560;9.708;2023-04-07T02:08:04;8.00;97.70
31783;DHT22;18351;47.560;9.708;2023-04-07T02:10:33;7.90;97.30
31783;DHT22;18351;47.560;9.708;2023-04-07T02:13:01;7.90;96.90
31783;DHT22;18351;47.560;9.708;2023-04-07T02:15:29;7.90;96.10
31783;DHT22;18351;47.560;9.708;2023-04-07T02:17:57;7.90;96.40
31783;DHT22;18351;47.560;9.708;2023-04-07T02:20:23;7.90;96.30
31783;DHT22;18351;47.560;9.708;2023-04-07T02:22:49;7.80;96.30
31783;DHT22;18351;47.560;9.708;2023-04-07T02:25:27;7.90;96.30
31783;DHT22;18351;47.560;9.708;2023-04-07T02:27:54;7.90;96.00
31783;DHT22;18351;47.560;9.708;2023-04-07T02:30:20;7.90;96.00
31783;DHT22;18351;47.560;9.708;2023-04-07T02:32:45;7.90;95.80
31783;DHT22;18351;47.560;9.708;2023-04-07T02:35:11;7.90;96.10
31783;DHT22;18351;47.560;9.708;2023-04-07T02:37:37;7.90;95.80
31783;DHT22;18351;47.560;9.708;2023-04-07T02:40:04;7.90;95.80
31783;DHT22;18351;47.560;9.708;2023-04-07T02:42:30;8.00;95.50
31783;DHT22;18351;47.560;9.708;2023-04-07T02:44:56;8.00;95.00
31783;DHT22;18351;47.560;9.708;2023-04-07T02:47:21;8.00;94.80
31783;DHT22;18351;47.560;9.708;2023-04-07T02:49:47;8.00;94.40
31783;DHT22;18351;47.560;9.708;2023-04-07T02:52:12;8.00;94.50
31783;DHT22;18351;47.560;9.708;2023-04-07T02:54:38;8.00;94.60
31783;DHT22;18351;47.560;9.708;2023-04-07T02:57:04;8.00;94.50
31783;DHT22;18351;47.560;9.708;2023-04-07T02:59:29;8.00;94.70
31783;DHT22;18351;47.560;9.708;2023-04-07T03:01:55;8.10;94.20
31783;DHT22;18351;47.560;9.708;2023-04-07T03:04:21;8.00;93.50
31783;DHT22;18351;47.560;9.708;2023-04-07T03:06:47;8.00;93.20
31783;DHT22;18351;47.560;9.708;2023-04-07T03:09:12;8.10;93.10
31783;DHT22;18351;47.560;9.708;2023-04-07T03:11:38;8.00;93.10
31783;DHT22;18351;47.560;9.708;2023-04-07T03:14:03;8.00;93.20
31783;DHT22;18351;47.560;9.708;2023-04-07T03:16:29;7.90;93.30
31783;DHT22;18351;47.560;9.708;2023-04-07T03:18:55;7.90;93.10
31783;DHT22;18351;47.560;9.708;2023-04-07T03:21:20;7.90;93.30
31783;DHT22;18351;47.560;9.708;2023-04-07T03:23:46;7.90;93.50
31783;DHT22;18351;47.560;9.708;2023-04-07T03:26:12;7.80;93.10
31783;DHT22;18351;47.560;9.708;2023-04-07T03:28:37;7.80;93.00
31783;DHT22;18351;47.560;9.708;2023-04-07T03:31:03;7.70;93.20
31783;DHT22;18351;47.560;9.708;2023-04-07T03:33:28;7.70;93.40
31783;DHT22;18351;47.560;9.708;2023-04-07T03:35:54;7.70;93.60
31783;DHT22;18351;47.560;9.708;2023-04-07T03:38:19;7.70;93.50
31783;DHT22;18351;47.560;9.708;2023-04-07T03:40:45;7.70;93.60
31783;DHT22;18351;47.560;9.708;2023-04-07T03:43:11;7.60;94.00
31783;DHT22;18351;47.560;9.708;2023-04-07T03:45:40;7.60;94.40
31783;DHT22;18351;47.560;9.708;2023-04-07T03:48:06;7.50;94.30
31783;DHT22;18351;47.560;9.708;2023-04-07T03:50:35;7.50;94.80
31783;DHT22;18351;47.560;9.708;2023-04-07T03:53:00;7.50;95.00
31783;DHT22;18351;47.560;9.708;2023-04-07T03:55:26;7.50;94.90
31783;DHT22;18351;47.560;9.708;2023-04-07T03:57:52;7.50;94.90
31783;DHT22;18351;47.560;9.708;2023-04-07T04:00:17;7.50;95.00
31783;DHT22;18351;47.560;9.708;2023-04-07T04:02:43;7.50;94.60
31783;DHT22;18351;47.560;9.708;2023-04-07T04:05:09;7.50;94.80
31783;DHT22;18351;47.560;9.708;2023-04-07T04:07:35;7.50;94.60
31783;DHT22;18351;47.560;9.708;2023-04-07T04:10:00;7.50;93.80
31783;DHT22;18351;47.560;9.708;2023-04-07T04:12:26;7.50;94.00
31783;DHT22;18351;47.560;9.708;2023-04-07T04:14:51;7.50;94.00
31783;DHT22;18351;47.560;9.708;2023-04-07T04:17:17;7.50;93.90
31783;DHT22;18351;47.560;9.708;2023-04-07T04:19:43;7.50;93.90
31783;DHT22;18351;47.560;9.708;2023-04-07T04:22:08;7.40;93.40
31783;DHT22;18351;47.560;9.708;2023-04-07T04:24:34;7.40;93.40
31783;DHT22;18351;47.560;9.708;2023-04-07T04:27:00;7.30;93.40
31783;DHT22;18351;47.560;9.708;2023-04-07T04:29:26;7.30;93.60
31783;DHT22;18351;47.560;9.708;2023-04-07T04:31:52;7.20;93.30
31783;DHT22;18351;47.560;9.708;2023-04-07T04:34:17;7.20;93.40
31783;DHT22;18351;47.560;9.708;2023-04-07T04:36:43;7.10;93.70
31783;DHT22;18351;47.560;9.708;2023-04-07T04:39:08;7.00;93.80
31783;DHT22;18351;47.560;9.708;2023-04-07T04:41:34;7.00;93.90
31783;DHT22;18351;47.560;9.708;2023-04-07T04:44:00;6.90;94.30
31783;DHT22;18351;47.560;9.708;2023-04-07T04:46:25;6.90;94.30
31783;DHT22;18351;47.560;9.708;2023-04-07T04:48:51;6.90;93.90
31783;DHT22;18351;47.560;9.708;2023-04-07T04:51:18;6.90;94.10
31783;DHT22;18351;47.560;9.708;2023-04-07T04:53:44;6.90;94.30
31783;DHT22;18351;47.560;9.708;2023-04-07T04:56:09;6.90;94.70
31783;DHT22;18351;47.560;9.708;2023-04-07T04:58:38;6.90;94.70
31783;DHT22;18351;47.560;9.708;2023-04-07T05:01:04;6.90;94.70
31783;DHT22;18351;47.560;9.708;2023-04-07T05:03:30;6.90;94.90
31783;DHT22;18351;47.560;9.708;2023-04-07T05:05:56;7.00;94.70
31783;DHT22;18351;47.560;9.708;2023-04-07T05:08:21;7.00;95.00
31783;DHT22;18351;47.560;9.708;2023-04-07T05:10:47;7.10;95.10
31783;DHT22;18351;47.560;9.708;2023-04-07T05:13:12;7.20;95.30
31783;DHT22;18351;47.560;9.708;2023-04-07T05:15:40;7.20;95.00
31783;DHT22;18351;47.560;9.708;2023-04-07T05:18:05;7.30;95.10
31783;DHT22;18351;47.560;9.708;2023-04-07T05:20:31;7.40;94.80
31783;DHT22;18351;47.560;9.708;2023-04-07T05:22:56;7.40;94.70
31783;DHT22;18351;47.560;9.708;2023-04-07T05:25:22;7.50;94.50
31783;DHT22;18351;47.560;9.708;2023-04-07T05:27:48;7.50;94.90
31783;DHT22;18351;47.560;9.708;2023-04-07T05:30:13;7.50;95.30
31783;DHT22;18351;47.560;9.708;2023-04-07T05:32:39;7.60;95.30
31783;DHT22;18351;47.560;9.708;2023-04-07T05:35:05;7.60;95.10
31783;DHT22;18351;47.560;9.708;2023-04-07T05:37:31;7.60;94.90
31783;DHT22;18351;47.560;9.708;2023-04-07T05:39:56;7.70;94.70
31783;DHT22;18351;47.560;9.708;2023-04-07T05:42:22;7.80;94.40
31783;DHT22;18351;47.560;9.708;2023-04-07T05:44:47;7.80;93.90
31783;DHT22;18351;47.560;9.708;2023-04-07T05:47:13;7.90;94.20
31783;DHT22;18351;47.560;9.708;2023-04-07T05:49:38;7.90;94.30
31783;DHT22;18351;47.560;9.708;2023-04-07T05:52:11;8.00;94.20
31783;DHT22;18351;47.560;9.708;2023-04-07T05:54:36;8.00;94.00
31783;DHT22;18351;47.560;9.708;2023-04-07T05:57:02;8.10;94.50
31783;DHT22;18351;47.560;9.708;2023-04-07T05:59:28;8.20;94.30
31783;DHT22;18351;47.560;9.708;2023-04-07T06:01:53;8.20;94.30
31783;DHT22;18351;47.560;9.708;2023-04-07T06:04:19;8.30;93.40
31783;DHT22;18351;47.560;9.708;2023-04-07T06:06:45;8.40;92.90
31783;DHT22;18351;47.560;9.708;2023-04-07T06:09:10;8.50;92.00
31783;DHT22;18351;47.560;9.708;2023-04-07T06:11:36;8.50;91.90
31783;DHT22;18351;47.560;9.708;2023-04-07T06:14:02;8.60;92.00
31783;DHT22;18351;47.560;9.708;2023-04-07T06:16:27;8.70;91.40
31783;DHT22;18351;47.560;9.708;2023-04-07T06:18:53;8.80;91.40
31783;DHT22;18351;47.560;9.708;2023-04-07T06:21:18;8.80;90.80
31783;DHT22;18351;47.560;9.708;2023-04-07T06:23:44;8.90;90.30
31783;DHT22;18351;47.560;9.708;2023-04-07T06:26:10;9.00;90.00
31783;DHT22;18351;47.560;9.708;2023-04-07T06:28:39;9.10;89.10
31783;DHT22;18351;47.560;9.708;2023-04-07T06:31:05;9.30;88.90
31783;DHT22;18351;47.560;9.708;2023-04-07T06:33:31;9.30;86.70
31783;DHT22;18351;47.560;9.708;2023-04-07T06:35:56;9.50;86.90
31783;DHT22;18351;47.560;9.708;2023-04-07T06:38:22;9.50;87.70
31783;DHT22;18351;47.560;9.708;2023-04-07T06:40:48;9.60;85.00
31783;DHT22;18351;47.560;9.708;2023-04-07T06:43:14;9.70;84.30
31783;DHT22;18351;47.560;9.708;2023-04-07T06:45:39;9.80;83.20
31783;DHT22;18351;47.560;9.708;2023-04-07T06:48:05;10.00;82.40
31783;DHT22;18351;47.560;9.708;2023-04-07T06:50:31;10.10;81.30
31783;DHT22;18351;47.560;9.708;2023-04-07T06:52:56;10.30;80.50
31783;DHT22;18351;47.560;9.708;2023-04-07T06:55:22;10.40;79.50
31783;DHT22;18351;47.560;9.708;2023-04-07T06:57:47;10.60;78.20
31783;DHT22;18351;47.560;9.708;2023-04-07T07:00:16;10.70;77.90
31783;DHT22;18351;47.560;9.708;2023-04-07T07:02:43;10.70;75.60
31783;DHT22;18351;47.560;9.708;2023-04-07T07:05:09;10.90;75.50
31783;DHT22;18351;47.560;9.708;2023-04-07T07:07:36;11.10;74.20
31783;DHT22;18351;47.560;9.708;2023-04-07T07:10:02;11.20;72.90
31783;DHT22;18351;47.560;9.708;2023-04-07T07:12:27;11.30;73.80
31783;DHT22;18351;47.560;9.708;2023-04-07T07:14:53;11.40;72.00
31783;DHT22;18351;47.560;9.708;2023-04-07T07:17:18;11.60;72.00
31783;DHT22;18351;47.560;9.708;2023-04-07T07:19:44;11.70;71.40
31783;DHT22;18351;47.560;9.708;2023-04-07T07:22:09;11.80;69.50
31783;DHT22;18351;47.560;9.708;2023-04-07T07:24:35;11.90;70.70
31783;DHT22;18351;47.560;9.708;2023-04-07T07:27:01;12.00;69.60
31783;DHT22;18351;47.560;9.708;2023-04-07T07:29:27;12.10;68.80
31783;DHT22;18351;47.560;9.708;2023-04-07T07:31:53;12.10;67.50
31783;DHT22;18351;47.560;9.708;2023-04-07T07:34:18;12.10;68.80
31783;DHT22;18351;47.560;9.708;2023-04-07T07:36:44;12.10;68.10
31783;DHT22;18351;47.560;9.708;2023-04-07T07:39:09;12.10;68.60
31783;DHT22;18351;47.560;9.708;2023-04-07T07:41:35;12.10;70.00
31783;DHT22;18351;47.560;9.708;2023-04-07T07:44:01;12.10;67.10
31783;DHT22;18351;47.560;9.708;2023-04-07T07:46:26;12.20;66.80
31783;DHT22;18351;47.560;9.708;2023-04-07T07:48:52;12.30;67.00
31783;DHT22;18351;47.560;9.708;2023-04-07T07:51:18;12.40;67.40
31783;DHT22;18351;47.560;9.708;2023-04-07T07:53:44;12.50;66.10
31783;DHT22;18351;47.560;9.708;2023-04-07T07:56:10;12.50;63.10
31783;DHT22;18351;47.560;9.708;2023-04-07T07:58:36;12.50;63.70
31783;DHT22;18351;47.560;9.708;2023-04-07T08:01:01;12.70;63.90
31783;DHT22;18351;47.560;9.708;2023-04-07T08:03:27;12.80;64.20
31783;DHT22;18351;47.560;9.708;2023-04-07T08:05:53;12.80;62.20
31783;DHT22;18351;47.560;9.708;2023-04-07T08:08:18;12.80;63.00
31783;DHT22;18351;47.560;9.708;2023-04-07T08:10:44;12.70;62.40
31783;DHT22;18351;47.560;9.708;2023-04-07T08:13:09;12.80;61.80
31783;DHT22;18351;47.560;9.708;2023-04-07T08:15:35;12.80;63.40
31783;DHT22;18351;47.560;9.708;2023-04-07T08:18:00;12.90;61.90
31783;DHT22;18351;47.560;9.708;2023-04-07T08:20:29;12.90;63.10
31783;DHT22;18351;47.560;9.708;2023-04-07T08:22:55;12.80;63.00
31783;DHT22;18351;47.560;9.708;2023-04-07T08:25:20;12.80;61.60
31783;DHT22;18351;47.560;9.708;2023-04-07T08:27:46;12.70;62.00
31783;DHT22;18351;47.560;9.708;2023-04-07T08:30:11;12.70;61.50
31783;DHT22;18351;47.560;9.708;2023-04-07T08:32:41;12.70;61.60
31783;DHT22;18351;47.560;9.708;2023-04-07T08:35:07;12.60;61.20
31783;DHT22;18351;47.560;9.708;2023-04-07T08:37:33;12.40;60.30
31783;DHT22;18351;47.560;9.708;2023-04-07T08:39:59;12.40;61.90
31783;DHT22;18351;47.560;9.708;2023-04-07T08:42:31;12.40;62.70
31783;DHT22;18351;47.560;9.708;2023-04-07T08:45:04;12.50;62.60
31783;DHT22;18351;47.560;9.708;2023-04-07T08:47:32;12.60;62.00
31783;DHT22;18351;47.560;9.708;2023-04-07T08:50:08;12.70;60.80
31783;DHT22;18351;47.560;9.708;2023-04-07T08:52:43;12.80;61.50
31783;DHT22;18351;47.560;9.708;2023-04-07T08:55:10;12.90;61.40
31783;DHT22;18351;47.560;9.708;2023-04-07T08:57:36;12.90;60.80
31783;DHT22;18351;47.560;9.708;2023-04-07T09:00:03;12.90;60.00
31783;DHT22;18351;47.560;9.708;2023-04-07T09:02:33;12.80;59.60
31783;DHT22;18351;47.560;9.708;2023-04-07T09:04:59;12.90;60.10
31783;DHT22;18351;47.560;9.708;2023-04-07T09:07:25;12.90;59.90
31783;DHT22;18351;47.560;9.708;2023-04-07T09:09:50;12.90;60.30
31783;DHT22;18351;47.560;9.708;2023-04-07T09:12:16;13.00;59.60
31783;DHT22;18351;47.560;9.708;2023-04-07T09:14:42;13.10;59.10
31783;DHT22;18351;47.560;9.708;2023-04-07T09:17:08;13.30;59.90
31783;DHT22;18351;47.560;9.708;2023-04-07T09:19:33;13.50;59.20
31783;DHT22;18351;47.560;9.708;2023-04-07T09:21:59;13.50;56.40
31783;DHT22;18351;47.560;9.708;2023-04-07T09:24:27;13.70;55.00
31783;DHT22;18351;47.560;9.708;2023-04-07T09:29:35;13.80;56.80
31783;DHT22;18351;47.560;9.708;2023-04-07T09:32:00;13.80;56.40
31783;DHT22;18351;47.560;9.708;2023-04-07T09:34:30;13.80;54.90
31783;DHT22;18351;47.560;9.708;2023-04-07T09:36:57;13.90;55.70
31783;DHT22;18351;47.560;9.708;2023-04-07T09:39:23;14.20;54.30
31783;DHT22;18351;47.560;9.708;2023-04-07T09:41:49;14.30;54.60
31783;DHT22;18351;47.560;9.708;2023-04-07T09:44:22;14.60;55.20
31783;DHT22;18351;47.560;9.708;2023-04-07T09:46:55;14.60;52.80
31783;DHT22;18351;47.560;9.708;2023-04-07T09:49:24;14.70;52.10
31783;DHT22;18351;47.560;9.708;2023-04-07T09:52:01;15.10;53.10
31783;DHT22;18351;47.560;9.708;2023-04-07T09:54:39;15.50;51.60
31783;DHT22;18351;47.560;9.708;2023-04-07T09:57:07;15.60;50.80
31783;DHT22;18351;47.560;9.708;2023-04-07T09:59:34;15.50;51.00
31783;DHT22;18351;47.560;9.708;2023-04-07T10:02:00;15.00;53.10
31783;DHT22;18351;47.560;9.708;2023-04-07T10:04:26;15.20;52.60
31783;DHT22;18351;47.560;9.708;2023-04-07T10:06:53;15.10;52.20
31783;DHT22;18351;47.560;9.708;2023-04-07T10:09:22;15.10;51.90
31783;DHT22;18351;47.560;9.708;2023-04-07T10:11:50;14.80;52.60
31783;DHT22;18351;47.560;9.708;2023-04-07T10:14:17;14.90;53.60
31783;DHT22;18351;47.560;9.708;2023-04-07T10:16:42;15.00;54.30
31783;DHT22;18351;47.560;9.708;2023-04-07T10:19:09;14.80;53.30
31783;DHT22;18351;47.560;9.708;2023-04-07T10:21:38;14.90;54.40
31783;DHT22;18351;47.560;9.708;2023-04-07T10:24:27;15.10;53.90
31783;DHT22;18351;47.560;9.708;2023-04-07T10:26:58;15.20;53.90
31783;DHT22;18351;47.560;9.708;2023-04-07T10:29:30;15.20;53.80
31783;DHT22;18351;47.560;9.708;2023-04-07T10:32:00;15.00;56.20
31783;DHT22;18351;47.560;9.708;2023-04-07T10:37:20;15.10;59.00
31783;DHT22;18351;47.560;9.708;2023-04-07T10:39:51;15.20;58.80
31783;DHT22;18351;47.560;9.708;2023-04-07T10:45:01;15.40;60.00
31783;DHT22;18351;47.560;9.708;2023-04-07T10:47:28;15.40;57.70
31783;DHT22;18351;47.560;9.708;2023-04-07T10:50:15;15.20;56.50
31783;DHT22;18351;47.560;9.708;2023-04-07T10:52:42;14.90;57.70
31783;DHT22;18351;47.560;9.708;2023-04-07T10:55:27;14.70;58.00
31783;DHT22;18351;47.560;9.708;2023-04-07T11:03:35;14.30;58.10
31783;DHT22;18351;47.560;9.708;2023-04-07T11:06:06;14.20;57.50
31783;DHT22;18351;47.560;9.708;2023-04-07T11:08:36;14.10;58.00
31783;DHT22;18351;47.560;9.708;2023-04-07T11:11:05;14.20;57.80
31783;DHT22;18351;47.560;9.708;2023-04-07T11:16:05;14.20;57.80
31783;DHT22;18351;47.560;9.708;2023-04-07T11:18:30;13.90;57.90
31783;DHT22;18351;47.560;9.708;2023-04-07T11:20:56;13.60;57.80
31783;DHT22;18351;47.560;9.708;2023-04-07T11:23:25;13.60;58.90
31783;DHT22;18351;47.560;9.708;2023-04-07T11:25:52;13.90;58.80
31783;DHT22;18351;47.560;9.708;2023-04-07T11:28:18;14.20;59.60
31783;DHT22;18351;47.560;9.708;2023-04-07T11:30:50;14.40;57.90
31783;DHT22;18351;47.560;9.708;2023-04-07T11:33:17;14.30;58.70
31783;DHT22;18351;47.560;9.708;2023-04-07T11:35:56;14.30;59.40
31783;DHT22;18351;47.560;9.708;2023-04-07T11:38:23;14.20;58.30
31783;DHT22;18351;47.560;9.708;2023-04-07T11:40:48;14.30;59.10
31783;DHT22;18351;47.560;9.708;2023-04-07T11:43:18;14.40;58.60
31783;DHT22;18351;47.560;9.708;2023-04-07T11:45:44;14.60;58.30
31783;DHT22;18351;47.560;9.708;2023-04-07T11:48:25;14.80;58.00
31783;DHT22;18351;47.560;9.708;2023-04-07T11:50:50;14.80;57.80
31783;DHT22;18351;47.560;9.708;2023-04-07T11:53:26;14.80;58.60
31783;DHT22;18351;47.560;9.708;2023-04-07T11:56:04;14.70;57.10
31783;DHT22;18351;47.560;9.708;2023-04-07T11:58:31;14.70;57.80
31783;DHT22;18351;47.560;9.708;2023-04-07T12:00:57;14.50;58.30
31783;DHT22;18351;47.560;9.708;2023-04-07T12:03:22;14.30;58.30
31783;DHT22;18351;47.560;9.708;2023-04-07T12:05:48;14.30;59.60
31783;DHT22;18351;47.560;9.708;2023-04-07T12:08:14;14.50;59.70
31783;DHT22;18351;47.560;9.708;2023-04-07T12:10:42;14.70;59.10
31783;DHT22;18351;47.560;9.708;2023-04-07T12:13:08;15.10;58.80
31783;DHT22;18351;47.560;9.708;2023-04-07T12:15:34;15.10;56.80
31783;DHT22;18351;47.560;9.708;2023-04-07T12:18:01;15.20;58.30
31783;DHT22;18351;47.560;9.708;2023-04-07T12:20:27;15.40;57.50
31783;DHT22;18351;47.560;9.708;2023-04-07T12:22:53;15.30;58.40
31783;DHT22;18351;47.560;9.708;2023-04-07T12:25:18;15.30;57.70
31783;DHT22;18351;47.560;9.708;2023-04-07T12:27:44;15.50;58.30
31783;DHT22;18351;47.560;9.708;2023-04-07T12:30:10;15.50;58.20
31783;DHT22;18351;47.560;9.708;2023-04-07T12:32:37;15.40;58.60
31783;DHT22;18351;47.560;9.708;2023-04-07T12:35:02;15.30;58.20
31783;DHT22;18351;47.560;9.708;2023-04-07T12:37:28;14.90;59.40
31783;DHT22;18351;47.560;9.708;2023-04-07T12:39:53;14.80;60.70
31783;DHT22;18351;47.560;9.708;2023-04-07T12:42:19;14.80;60.60
31783;DHT22;18351;47.560;9.708;2023-04-07T12:44:44;15.00;61.90
31783;DHT22;18351;47.560;9.708;2023-04-07T12:47:10;15.20;61.10
31783;DHT22;18351;47.560;9.708;2023-04-07T12:49:36;15.30;59.20
31783;DHT22;18351;47.560;9.708;2023-04-07T12:52:02;15.50;59.90
31783;DHT22;18351;47.560;9.708;2023-04-07T12:54:27;15.80;59.00
31783;DHT22;18351;47.560;9.708;2023-04-07T12:56:53;15.90;60.00
31783;DHT22;18351;47.560;9.708;2023-04-07T12:59:18;16.00;60.50
31783;DHT22;18351;47.560;9.708;2023-04-07T13:01:44;16.20;59.70
31783;DHT22;18351;47.560;9.708;2023-04-07T13:04:09;16.40;56.50
31783;DHT22;18351;47.560;9.708;2023-04-07T13:06:35;16.60;56.60
31783;DHT22;18351;47.560;9.708;2023-04-07T13:09:00;16.70;56.80
31783;DHT22;18351;47.560;9.708;2023-04-07T13:11:26;16.40;56.60
31783;DHT22;18351;47.560;9.708;2023-04-07T13:13:51;16.40;55.20
31783;DHT22;18351;47.560;9.708;2023-04-07T13:16:17;16.20;56.10
31783;DHT22;18351;47.560;9.708;2023-04-07T13:18:42;16.30;56.30
31783;DHT22;18351;47.560;9.708;2023-04-07T13:21:08;16.40;57.40
31783;DHT22;18351;47.560;9.708;2023-04-07T13:23:34;16.10;55.90
31783;DHT22;18351;47.560;9.708;2023-04-07T13:26:00;15.70;57.10
31783;DHT22;18351;47.560;9.708;2023-04-07T13:28:26;15.80;58.70
31783;DHT22;18351;47.560;9.708;2023-04-07T13:30:52;15.90;58.40
31783;DHT22;18351;47.560;9.708;2023-04-07T13:33:17;16.10;57.00
31783;DHT22;18351;47.560;9.708;2023-04-07T13:35:42;16.00;56.70
31783;DHT22;18351;47.560;9.708;2023-04-07T13:38:08;15.70;56.90
31783;DHT22;18351;47.560;9.708;2023-04-07T13:40:33;15.60;57.40
31783;DHT22;18351;47.560;9.708;2023-04-07T13:42:59;15.50;57.80
31783;DHT22;18351;47.560;9.708;2023-04-07T13:45:25;15.30;59.70
31783;DHT22;18351;47.560;9.708;2023-04-07T13:47:51;15.00;59.60
31783;DHT22;18351;47.560;9.708;2023-04-07T13:50:16;14.80;61.50
31783;DHT22;18351;47.560;9.708;2023-04-07T13:52:42;14.60;62.30
31783;DHT22;18351;47.560;9.708;2023-04-07T13:55:07;14.60;61.30
31783;DHT22;18351;47.560;9.708;2023-04-07T13:57:33;14.50;62.20
31783;DHT22;18351;47.560;9.708;2023-04-07T13:59:58;14.50;62.00
31783;DHT22;18351;47.560;9.708;2023-04-07T14:02:24;14.60;61.80
31783;DHT22;18351;47.560;9.708;2023-04-07T14:04:51;14.40;64.00
31783;DHT22;18351;47.560;9.708;2023-04-07T14:07:17;14.50;61.70
31783;DHT22;18351;47.560;9.708;2023-04-07T14:09:42;14.60;61.30
31783;DHT22;18351;47.560;9.708;2023-04-07T14:12:08;14.80;61.10
31783;DHT22;18351;47.560;9.708;2023-04-07T14:14:34;15.00;61.70
31783;DHT22;18351;47.560;9.708;2023-04-07T14:17:02;15.00;61.30
31783;DHT22;18351;47.560;9.708;2023-04-07T14:19:28;14.90;62.10
31783;DHT22;18351;47.560;9.708;2023-04-07T14:21:53;15.00;61.80
31783;DHT22;18351;47.560;9.708;2023-04-07T14:24:20;15.10;61.00
31783;DHT22;18351;47.560;9.708;2023-04-07T14:26:45;15.00;60.60
31783;DHT22;18351;47.560;9.708;2023-04-07T14:29:11;14.90;62.60
31783;DHT22;18351;47.560;9.708;2023-04-07T14:31:37;14.90;62.90
31783;DHT22;18351;47.560;9.708;2023-04-07T14:34:02;14.90;61.90
31783;DHT22;18351;47.560;9.708;2023-04-07T14:36:29;15.00;62.50
31783;DHT22;18351;47.560;9.708;2023-04-07T14:38:54;15.00;62.30
31783;DHT22;18351;47.560;9.708;2023-04-07T14:41:21;15.00;64.50
31783;DHT22;18351;47.560;9.708;2023-04-07T14:43:47;14.90;65.20
31783;DHT22;18351;47.560;9.708;2023-04-07T14:46:16;15.00;65.40
31783;DHT22;18351;47.560;9.708;2023-04-07T14:48:41;14.90;65.60
31783;DHT22;18351;47.560;9.708;2023-04-07T14:51:11;14.70;65.80
31783;DHT22;18351;47.560;9.708;2023-04-07T14:53:39;14.10;67.10
31783;DHT22;18351;47.560;9.708;2023-04-07T14:56:06;13.80;69.10
31783;DHT22;18351;47.560;9.708;2023-04-07T14:58:31;13.40;69.40
31783;DHT22;18351;47.560;9.708;2023-04-07T15:00:57;13.10;70.10
31783;DHT22;18351;47.560;9.708;2023-04-07T15:03:22;13.00;70.30
31783;DHT22;18351;47.560;9.708;2023-04-07T15:05:48;13.00;70.10
31783;DHT22;18351;47.560;9.708;2023-04-07T15:08:13;12.90;69.80
31783;DHT22;18351;47.560;9.708;2023-04-07T15:10:39;12.80;70.60
31783;DHT22;18351;47.560;9.708;2023-04-07T15:13:04;12.80;70.80
31783;DHT22;18351;47.560;9.708;2023-04-07T15:15:30;12.80;71.90
31783;DHT22;18351;47.560;9.708;2023-04-07T15:17:55;13.00;72.50
31783;DHT22;18351;47.560;9.708;2023-04-07T15:20:21;13.00;69.70
31783;DHT22;18351;47.560;9.708;2023-04-07T15:22:47;13.10;71.20
31783;DHT22;18351;47.560;9.708;2023-04-07T15:25:12;13.20;71.00
31783;DHT22;18351;47.560;9.708;2023-04-07T15:27:38;13.30;70.10
31783;DHT22;18351;47.560;9.708;2023-04-07T15:30:03;13.30;70.00
31783;DHT22;18351;47.560;9.708;2023-04-07T15:32:29;13.30;70.80
31783;DHT22;18351;47.560;9.708;2023-04-07T15:34:55;13.30;69.40
31783;DHT22;18351;47.560;9.708;2023-04-07T15:37:20;13.30;69.90
31783;DHT22;18351;47.560;9.708;2023-04-07T15:39:46;13.10;69.90
31783;DHT22;18351;47.560;9.708;2023-04-07T15:42:12;13.00;70.90
31783;DHT22;18351;47.560;9.708;2023-04-07T15:44:37;12.90;71.50
31783;DHT22;18351;47.560;9.708;2023-04-07T15:47:06;12.80;72.70
31783;DHT22;18351;47.560;9.708;2023-04-07T15:49:32;12.90;73.00
31783;DHT22;18351;47.560;9.708;2023-04-07T15:51:58;12.90;72.60
31783;DHT22;18351;47.560;9.708;2023-04-07T15:54:24;12.80;72.60